Terminal Aerodrome Forecast
Issued by NWS

Home | Current Version | Previous Version | Text Only | Print | Product List | Glossary On
Versions: 1 2 3 4 5 6 7 8 9 10 11 12 13 14 15 16 17
000
FTUS45 KPSR 272339
TAFBLH
TAF
KBLH 272339Z 2800/2824 18010KT 6SM -RA FEW020 BKN040
      TEMPO 2800/2804 6SM -RA BR BKN025
     FM280600 20008KT P6SM -SHRA SCT030 BKN070
     FM280900 22008KT P6SM BKN100
     FM281500 29008KT P6SM SCT100
     FM282100 34010KT P6SM SKC=

USA.gov is the U.S. government's official web portal to all federal, state and local government web resources and services.